createdAt,value
2023-02-26T00:00:10.490Z,99675.03
2023-02-26T00:02:37.086Z,99669.03
2023-02-26T00:05:05.784Z,99670.91
2023-02-26T00:07:32.767Z,99671.75
2023-02-26T00:10:01.397Z,99673.38
2023-02-26T00:12:28.893Z,99679.38
2023-02-26T00:14:55.728Z,99691.56
2023-02-26T00:17:38.330Z,99684.69
2023-02-26T00:20:06.865Z,99686.34
2023-02-26T00:22:33.646Z,99688.88
2023-02-26T00:25:00.202Z,99690.72
2023-02-26T00:27:26.756Z,99695.06
2023-02-26T00:29:54.287Z,99700.25
2023-02-26T00:32:21.255Z,99693.31
2023-02-26T00:34:49.273Z,99704.72
2023-02-26T00:37:28.839Z,99707.28
2023-02-26T00:39:55.306Z,99702.06
2023-02-26T00:42:22.157Z,99702.94
2023-02-26T00:44:48.998Z,99708.91
2023-02-26T00:47:40.473Z,99708.13
2023-02-26T00:50:15.805Z,99709.09
2023-02-26T00:53:15.966Z,99708.28
2023-02-26T00:55:42.488Z,99708.16
2023-02-26T00:58:09.117Z,99704.13
2023-02-26T01:00:35.701Z,99710.75
2023-02-26T01:03:03.765Z,99713.44
2023-02-26T01:05:30.923Z,99710.13
2023-02-26T01:08:13.879Z,99710.94
2023-02-26T01:10:40.750Z,99722.94
2023-02-26T01:13:07.568Z,99714.91
2023-02-26T01:15:34.578Z,99716.72
2023-02-26T01:18:23.627Z,99716.97
2023-02-26T01:20:56.463Z,99713.53
2023-02-26T01:23:29.395Z,99722.88
2023-02-26T01:25:59.552Z,99719.53
2023-02-26T01:28:27.216Z,99720.41
2023-02-26T01:31:00.665Z,99733.53
2023-02-26T01:33:46.873Z,99727.38
2023-02-26T01:36:22.524Z,99728.91
2023-02-26T01:39:07.305Z,99730.78
2023-02-26T01:41:40.255Z,99732.66
2023-02-26T01:44:15.511Z,99735.03
2023-02-26T01:46:57.097Z,99732.53
2023-02-26T01:49:23.994Z,99740.25
2023-02-26T01:51:55.851Z,99741.28
2023-02-26T01:54:25.088Z,99739.38
2023-02-26T01:57:21.004Z,99744.59
2023-02-26T01:59:50.958Z,99751.59
2023-02-26T02:02:25.037Z,99760.97
2023-02-26T02:04:51.876Z,99763.72
2023-02-26T02:07:19.447Z,99758.50
2023-02-26T02:09:47.561Z,99765.56
2023-02-26T02:12:54.271Z,99767.22
2023-02-26T02:15:45.541Z,99766.06
2023-02-26T02:18:20.907Z,99769.59
2023-02-26T02:20:47.473Z,99774.88
2023-02-26T02:23:35.356Z,99779.81
2023-02-26T02:26:32.870Z,99786.75
2023-02-26T02:29:08.539Z,99786.78
2023-02-26T02:31:43.892Z,99797.16
2023-02-26T02:34:17.207Z,99791.06
2023-02-26T02:37:08.586Z,99798.75
2023-02-26T02:39:42.465Z,99805.81
2023-02-26T02:42:18.388Z,99804.00
2023-02-26T02:44:51.538Z,99810.78
2023-02-26T02:47:21.010Z,99819.41
2023-02-26T02:50:05.480Z,99825.41
2023-02-26T02:52:40.719Z,99830.59
2023-02-26T02:55:36.419Z,99825.53
2023-02-26T02:58:17.386Z,99827.16
2023-02-26T03:00:49.927Z,99830.53
2023-02-26T03:03:24.378Z,99833.38
2023-02-26T03:05:51.106Z,99834.03
2023-02-26T03:08:24.183Z,99843.44
2023-02-26T03:10:50.910Z,99849.56
2023-02-26T03:13:19.760Z,99847.00
2023-02-26T03:16:12.614Z,99854.75
2023-02-26T03:19:21.780Z,99857.25
2023-02-26T03:22:11.424Z,99855.63
2023-02-26T03:24:46.785Z,99871.28
2023-02-26T03:27:28.511Z,99865.94
2023-02-26T03:30:24.590Z,99874.59
2023-02-26T03:33:00.971Z,99874.72
2023-02-26T03:35:37.591Z,99877.19
2023-02-26T03:38:09.619Z,99888.28
2023-02-26T03:40:49.018Z,99887.69
2023-02-26T03:43:26.126Z,99893.56
2023-02-26T03:45:56.447Z,99897.06
2023-02-26T03:48:27.565Z,99903.13
2023-02-26T03:51:00.707Z,99908.28
2023-02-26T03:53:32.155Z,99916.84
2023-02-26T03:56:38.044Z,99927.97
2023-02-26T03:59:04.700Z,99929.03
2023-02-26T04:01:43.846Z,99920.16
2023-02-26T04:04:20.480Z,99930.47
2023-02-26T04:06:48.133Z,99924.66
2023-02-26T04:09:16.158Z,99918.41
2023-02-26T04:11:43.861Z,99935.72
2023-02-26T04:14:10.686Z,99930.47
2023-02-26T04:16:37.230Z,99938.22
2023-02-26T04:19:03.997Z,99941.16
2023-02-26T04:21:30.672Z,99952.28
2023-02-26T04:23:57.200Z,99957.22
2023-02-26T04:26:23.928Z,99959.91
2023-02-26T04:28:50.618Z,99960.78
2023-02-26T04:31:17.332Z,99971.97
2023-02-26T04:33:44.189Z,99975.38
2023-02-26T04:36:10.783Z,99973.03
2023-02-26T04:38:37.372Z,99973.88
2023-02-26T04:41:04.055Z,99978.09
2023-02-26T04:43:30.594Z,99978.13
2023-02-26T04:45:57.162Z,99982.38
2023-02-26T04:48:23.990Z,99987.06
2023-02-26T04:50:50.544Z,99983.34
2023-02-26T04:53:17.039Z,99983.31
2023-02-26T04:55:43.620Z,99984.16
2023-02-26T04:58:10.197Z,99991.00
2023-02-26T05:00:37.072Z,99998.81
2023-02-26T05:03:03.641Z,100007.41
2023-02-26T05:05:30.198Z,100011.78
2023-02-26T05:07:56.878Z,100007.41
2023-02-26T05:10:25.520Z,100023.91
2023-02-26T05:12:52.272Z,100025.84
2023-02-26T05:15:18.958Z,100030.19
2023-02-26T05:17:45.529Z,100031.72
2023-02-26T05:20:12.483Z,100037.88
2023-02-26T05:22:39.896Z,100037.06
2023-02-26T05:25:07.572Z,100037.03
2023-02-26T05:27:34.499Z,100042.25
2023-02-26T05:30:01.027Z,100049.13
2023-02-26T05:32:27.983Z,100046.63
2023-02-26T05:34:54.612Z,100051.78
2023-02-26T05:37:21.187Z,100060.34
2023-02-26T05:39:47.678Z,100056.31
2023-02-26T05:42:14.211Z,100063.84
2023-02-26T05:44:40.740Z,100068.13
2023-02-26T05:47:07.288Z,100074.25
2023-02-26T05:49:33.745Z,100076.03
2023-02-26T05:52:00.298Z,100076.84
2023-02-26T05:54:26.861Z,100082.09
2023-02-26T05:56:53.380Z,100092.47
2023-02-26T05:59:19.999Z,100092.47
2023-02-26T06:01:46.642Z,100100.22
2023-02-26T06:04:13.222Z,100104.69
2023-02-26T06:06:39.838Z,100110.63
2023-02-26T06:09:06.882Z,100115.72
2023-02-26T06:11:34.144Z,100112.28
2023-02-26T06:14:01.277Z,100114.03
2023-02-26T06:16:28.376Z,100115.63
2023-02-26T06:18:55.180Z,100126.06
2023-02-26T06:21:22.021Z,100126.03
2023-02-26T06:23:48.541Z,100134.66
2023-02-26T06:26:15.511Z,100138.28
2023-02-26T06:28:42.127Z,100141.78
2023-02-26T06:31:08.678Z,100143.38
2023-02-26T06:33:35.279Z,100146.72
2023-02-26T06:36:02.493Z,100158.72
2023-02-26T06:38:29.345Z,100165.69
2023-02-26T06:40:55.867Z,100169.94
2023-02-26T06:43:22.602Z,100174.22
2023-02-26T06:45:49.514Z,100172.47
2023-02-26T06:48:16.118Z,100181.41
2023-02-26T06:50:42.687Z,100186.50
2023-02-26T06:53:09.404Z,100182.94
2023-02-26T06:55:36.084Z,100189.91
2023-02-26T06:58:02.662Z,100204.59
2023-02-26T07:00:29.228Z,100191.69
2023-02-26T07:02:55.969Z,100196.78
2023-02-26T07:05:22.755Z,100207.06
2023-02-26T07:07:49.291Z,100200.84
2023-02-26T07:10:15.832Z,100216.53
2023-02-26T07:12:42.624Z,100219.13
2023-02-26T07:15:09.448Z,100231.19
2023-02-26T07:17:36.020Z,100225.28
2023-02-26T07:20:06.589Z,100230.38
2023-02-26T07:22:33.972Z,100238.16
2023-02-26T07:25:00.696Z,100247.50
2023-02-26T07:27:27.818Z,100243.25
2023-02-26T07:29:54.363Z,100250.97
2023-02-26T07:32:21.216Z,100253.84
2023-02-26T07:34:47.992Z,100255.47
2023-02-26T07:37:14.721Z,100250.72
2023-02-26T07:39:41.343Z,100248.97
2023-02-26T07:42:09.185Z,100258.31
2023-02-26T07:44:36.006Z,100267.09
2023-02-26T07:47:02.967Z,100264.66
2023-02-26T07:49:29.549Z,100262.19
2023-02-26T07:51:56.046Z,100268.44
2023-02-26T07:54:22.752Z,100269.47
2023-02-26T07:56:49.381Z,100276.50
2023-02-26T07:59:15.890Z,100274.53
2023-02-26T08:01:42.418Z,100282.19
2023-02-26T08:04:09.184Z,100277.81
2023-02-26T08:06:35.975Z,100283.91
2023-02-26T08:09:04.312Z,100287.22
2023-02-26T08:11:32.800Z,100293.19
2023-02-26T08:13:59.318Z,100300.97
2023-02-26T08:16:26.295Z,100295.03
2023-02-26T08:18:53.041Z,100305.34
2023-02-26T08:21:19.579Z,100308.03
2023-02-26T08:23:46.107Z,100304.50
2023-02-26T08:26:13.542Z,100314.72
2023-02-26T08:28:40.409Z,100320.09
2023-02-26T08:31:07.363Z,100315.78
2023-02-26T08:33:34.156Z,100324.16
2023-02-26T08:36:01.706Z,100329.28
2023-02-26T08:38:29.771Z,100335.09
2023-02-26T08:40:56.692Z,100331.41
2023-02-26T08:43:23.537Z,100335.09
2023-02-26T08:45:52.636Z,100344.56
2023-02-26T08:48:19.386Z,100349.50
2023-02-26T08:50:46.109Z,100349.44
2023-02-26T08:53:12.744Z,100359.50
2023-02-26T08:55:39.308Z,100352.78
2023-02-26T08:58:05.955Z,100356.06
2023-02-26T09:00:32.509Z,100368.81
2023-02-26T09:02:59.181Z,100369.19
2023-02-26T09:05:26.009Z,100374.03
2023-02-26T09:07:52.511Z,100372.00
2023-02-26T09:10:19.176Z,100387.44
2023-02-26T09:12:46.753Z,100386.06
2023-02-26T09:15:14.633Z,100381.50
2023-02-26T09:17:41.785Z,100399.38
2023-02-26T09:20:10.205Z,100393.34
2023-02-26T09:22:37.167Z,100402.50
2023-02-26T09:25:04.825Z,100400.47
2023-02-26T09:27:31.600Z,100403.53
2023-02-26T09:29:58.184Z,100409.22
2023-02-26T09:32:26.815Z,100413.97
2023-02-26T09:34:53.564Z,100424.38
2023-02-26T09:37:20.227Z,100426.59
2023-02-26T09:39:46.756Z,100425.78
2023-02-26T09:42:27.961Z,100427.91
2023-02-26T09:45:00.007Z,100436.38
2023-02-26T09:47:41.366Z,100427.97
2023-02-26T09:50:16.330Z,100434.66
2023-02-26T09:53:13.810Z,100437.41
2023-02-26T09:55:47.841Z,100441.53
2023-02-26T09:58:30.892Z,100453.66
2023-02-26T10:01:18.872Z,100445.13
2023-02-26T10:03:54.044Z,100442.16
2023-02-26T10:06:29.344Z,100454.28
2023-02-26T10:09:14.077Z,100462.72
2023-02-26T10:11:51.097Z,100456.94
2023-02-26T10:14:24.394Z,100469.81
2023-02-26T10:16:56.459Z,100474.13
2023-02-26T10:19:28.187Z,100480.00
2023-02-26T10:22:03.037Z,100473.41
2023-02-26T10:24:42.542Z,100487.91
2023-02-26T10:27:17.545Z,100483.19
2023-02-26T10:30:20.309Z,100499.13
2023-02-26T10:32:59.060Z,100500.31
2023-02-26T10:35:33.106Z,100491.13
2023-02-26T10:38:07.385Z,100497.66
2023-02-26T10:40:43.511Z,100505.59
2023-02-26T10:43:22.131Z,100506.34
2023-02-26T10:45:51.666Z,100512.91
2023-02-26T10:48:23.851Z,100505.88
2023-02-26T10:50:56.664Z,100520.66
2023-02-26T10:53:24.619Z,100518.75
2023-02-26T10:56:05.209Z,100515.44
2023-02-26T10:58:32.203Z,100521.38
2023-02-26T11:00:58.883Z,100518.81
2023-02-26T11:03:34.344Z,100523.72
2023-02-26T11:06:03.771Z,100523.25
2023-02-26T11:08:46.361Z,100521.75
2023-02-26T11:11:55.691Z,100522.50
2023-02-26T11:14:25.411Z,100518.75
2023-02-26T11:16:57.369Z,100513.59
2023-02-26T11:19:31.013Z,100514.56
2023-02-26T11:21:59.540Z,100532.22
2023-02-26T11:24:31.895Z,100530.47
2023-02-26T11:27:04.044Z,100525.41
2023-02-26T11:29:54.751Z,100533.13
2023-02-26T11:32:31.163Z,100531.41
2023-02-26T11:34:57.720Z,100531.91
2023-02-26T11:37:29.986Z,100523.25
2023-02-26T11:39:59.811Z,100527.94
2023-02-26T11:42:27.831Z,100523.59
2023-02-26T11:44:55.323Z,100533.34
2023-02-26T11:47:29.596Z,100525.06
2023-02-26T11:50:04.674Z,100531.66
2023-02-26T11:52:40.397Z,100541.78
2023-02-26T11:55:23.216Z,100542.66
2023-02-26T11:57:54.477Z,100533.91
2023-02-26T12:00:24.679Z,100537.69
2023-02-26T12:02:56.557Z,100544.47
2023-02-26T12:05:23.113Z,100542.91
2023-02-26T12:07:50.708Z,100537.56
2023-02-26T12:10:33.168Z,100540.75
2023-02-26T12:13:07.853Z,100535.50
2023-02-26T12:15:56.702Z,100544.13
2023-02-26T12:18:41.691Z,100540.00
2023-02-26T12:21:39.174Z,100536.94
2023-02-26T12:24:23.922Z,100543.16
2023-02-26T12:27:02.306Z,100553.09
2023-02-26T12:29:55.195Z,100554.44
2023-02-26T12:32:34.016Z,100554.16
2023-02-26T12:35:12.498Z,100553.31
2023-02-26T12:38:02.958Z,100561.59
2023-02-26T12:40:50.576Z,100557.19
2023-02-26T12:43:39.298Z,100559.69
2023-02-26T12:46:21.091Z,100563.81
2023-02-26T12:49:20.939Z,100576.94
2023-02-26T12:51:56.658Z,100569.03
2023-02-26T12:54:42.024Z,100577.19
2023-02-26T12:57:36.381Z,100568.69
2023-02-26T13:00:29.276Z,100574.59
2023-02-26T13:03:17.968Z,100569.94
2023-02-26T13:05:56.361Z,100579.41
2023-02-26T13:08:33.549Z,100577.13
2023-02-26T13:11:12.166Z,100571.63
2023-02-26T13:13:57.511Z,100586.44
2023-02-26T13:16:44.797Z,100577.94
2023-02-26T13:19:20.582Z,100579.47
2023-02-26T13:21:53.645Z,100580.59
2023-02-26T13:24:42.390Z,100587.91
2023-02-26T13:27:11.991Z,100587.75
2023-02-26T13:29:46.195Z,100589.91
2023-02-26T13:32:16.336Z,100586.75
2023-02-26T13:34:42.971Z,100592.28
2023-02-26T13:37:40.820Z,100594.63
2023-02-26T13:40:48.867Z,100595.78
2023-02-26T13:43:41.785Z,100619.53
2023-02-26T13:46:26.438Z,100624.97
2023-02-26T13:49:21.200Z,100625.66
2023-02-26T13:51:50.114Z,100617.72
2023-02-26T13:54:17.257Z,100620.81
2023-02-26T13:56:46.928Z,100612.81
2023-02-26T13:59:13.957Z,100619.06
2023-02-26T14:01:50.214Z,100617.75
2023-02-26T14:04:20.044Z,100621.59
2023-02-26T14:06:54.794Z,100627.97
2023-02-26T14:09:25.849Z,100616.31
2023-02-26T14:11:55.137Z,100612.78
2023-02-26T14:14:21.577Z,100618.97
2023-02-26T14:16:51.142Z,100613.72
2023-02-26T14:19:36.397Z,100616.44
2023-02-26T14:22:23.717Z,100619.22
2023-02-26T14:25:05.360Z,100615.09
2023-02-26T14:27:33.851Z,100605.94
2023-02-26T14:30:33.975Z,100607.06
2023-02-26T14:33:00.534Z,100608.50
2023-02-26T14:35:33.787Z,100625.81
2023-02-26T14:38:15.977Z,100627.13
2023-02-26T14:41:02.688Z,100625.00
2023-02-26T14:43:37.013Z,100627.25
2023-02-26T14:46:05.825Z,100627.75
2023-02-26T14:48:33.410Z,100621.56
2023-02-26T14:51:19.046Z,100622.78
2023-02-26T14:53:54.463Z,100630.19
2023-02-26T14:56:39.877Z,100637.00
2023-02-26T14:59:15.420Z,100632.66
2023-02-26T15:01:47.950Z,100637.19
2023-02-26T15:04:28.772Z,100635.72
2023-02-26T15:07:22.979Z,100640.50
2023-02-26T15:10:36.889Z,100647.78
2023-02-26T15:13:27.944Z,100647.28
2023-02-26T15:15:58.155Z,100644.22
2023-02-26T15:18:33.754Z,100658.34
2023-02-26T15:21:34.230Z,100673.97
2023-02-26T15:24:01.847Z,100680.38
2023-02-26T15:26:32.789Z,100668.78
2023-02-26T15:29:02.435Z,100667.34
2023-02-26T15:31:36.603Z,100667.38
2023-02-26T15:34:03.889Z,100670.06
2023-02-26T15:36:31.572Z,100670.72
2023-02-26T15:39:01.086Z,100675.75
2023-02-26T15:41:30.534Z,100679.53
2023-02-26T15:44:03.578Z,100675.06
2023-02-26T15:46:34.979Z,100679.81
2023-02-26T15:49:23.629Z,100681.94
2023-02-26T15:51:52.748Z,100682.88
2023-02-26T15:54:22.205Z,100674.50
2023-02-26T15:56:49.658Z,100687.34
2023-02-26T15:59:24.535Z,100681.06
2023-02-26T16:01:51.308Z,100684.03
2023-02-26T16:04:20.396Z,100688.66
2023-02-26T16:06:50.029Z,100685.94
2023-02-26T16:09:20.785Z,100689.78
2023-02-26T16:11:49.781Z,100697.22
2023-02-26T16:14:24.717Z,100691.88
2023-02-26T16:16:56.765Z,100702.88
2023-02-26T16:19:41.952Z,100702.69
2023-02-26T16:22:30.696Z,100700.97
2023-02-26T16:25:09.574Z,100703.56
2023-02-26T16:27:36.634Z,100697.53
2023-02-26T16:30:05.100Z,100705.28
2023-02-26T16:32:34.990Z,100707.09
2023-02-26T16:35:10.532Z,100706.34
2023-02-26T16:37:37.974Z,100715.00
2023-02-26T16:40:41.404Z,100720.19
2023-02-26T16:43:40.217Z,100726.41
2023-02-26T16:46:07.161Z,100729.22
2023-02-26T16:48:44.061Z,100734.38
2023-02-26T16:51:15.768Z,100736.91
2023-02-26T16:53:48.418Z,100742.28
2023-02-26T16:56:22.434Z,100748.34
2023-02-26T16:59:11.830Z,100748.50
2023-02-26T17:01:50.986Z,100764.19
2023-02-26T17:04:19.567Z,100762.53
2023-02-26T17:06:47.658Z,100766.88
2023-02-26T17:09:34.727Z,100768.47
2023-02-26T17:12:06.418Z,100775.50
2023-02-26T17:14:57.268Z,100786.78
2023-02-26T17:17:30.443Z,100788.38
2023-02-26T17:19:57.051Z,100785.56
2023-02-26T17:22:28.963Z,100787.91
2023-02-26T17:24:55.627Z,100792.19
2023-02-26T17:27:30.690Z,100797.47
2023-02-26T17:29:58.202Z,100802.69
2023-02-26T17:32:27.580Z,100802.44
2023-02-26T17:34:54.612Z,100812.78
2023-02-26T17:37:22.585Z,100818.84
2023-02-26T17:39:49.275Z,100823.34
2023-02-26T17:42:21.417Z,100830.34
2023-02-26T17:44:48.716Z,100833.94
2023-02-26T17:47:21.481Z,100829.03
2023-02-26T17:49:48.644Z,100836.78
2023-02-26T17:52:15.920Z,100836.09
2023-02-26T17:54:42.917Z,100842.16
2023-02-26T17:57:16.622Z,100841.50
2023-02-26T17:59:43.198Z,100851.84
2023-02-26T18:02:25.473Z,100846.50
2023-02-26T18:04:52.085Z,100859.84
2023-02-26T18:07:19.432Z,100857.34
2023-02-26T18:09:48.123Z,100865.53
2023-02-26T18:12:16.598Z,100869.78
2023-02-26T18:14:43.544Z,100872.38
2023-02-26T18:17:15.784Z,100868.03
2023-02-26T18:19:42.712Z,100873.28
2023-02-26T18:22:21.521Z,100878.44
2023-02-26T18:24:48.035Z,100881.78
2023-02-26T18:27:20.111Z,100878.38
2023-02-26T18:29:46.974Z,100889.56
2023-02-26T18:32:19.708Z,100892.16
2023-02-26T18:34:46.579Z,100888.34
2023-02-26T18:37:18.615Z,100894.66
2023-02-26T18:39:45.480Z,100889.56
2023-02-26T18:42:26.787Z,100895.44
2023-02-26T18:44:54.192Z,100895.50
2023-02-26T18:47:22.136Z,100901.38
2023-02-26T18:49:50.329Z,100905.56
2023-02-26T18:52:17.517Z,100905.00
2023-02-26T18:54:45.122Z,100908.25
2023-02-26T18:57:11.720Z,100913.41
2023-02-26T18:59:38.315Z,100914.44
2023-02-26T19:02:06.945Z,100911.97
2023-02-26T19:04:34.223Z,100931.19
2023-02-26T19:07:00.802Z,100928.75
2023-02-26T19:09:28.797Z,100931.56
2023-02-26T19:11:56.531Z,100937.41
2023-02-26T19:14:24.421Z,100939.16
2023-02-26T19:16:50.969Z,100937.56
2023-02-26T19:19:18.189Z,100943.75
2023-02-26T19:21:44.802Z,100946.22
2023-02-26T19:24:13.094Z,100949.69
2023-02-26T19:26:40.720Z,100947.25
2023-02-26T19:29:09.820Z,100957.69
2023-02-26T19:31:36.636Z,100962.09
2023-02-26T19:34:04.205Z,100961.28
2023-02-26T19:36:34.131Z,100960.41
2023-02-26T19:39:01.719Z,100972.50
2023-02-26T19:41:29.004Z,100965.34
2023-02-26T19:43:55.780Z,100964.38
2023-02-26T19:46:23.178Z,100968.78
2023-02-26T19:48:50.190Z,100976.38
2023-02-26T19:51:17.096Z,100976.56
2023-02-26T19:53:43.650Z,100979.31
2023-02-26T19:56:10.429Z,100983.72
2023-02-26T19:58:37.079Z,100989.72
2023-02-26T20:01:04.804Z,100990.53
2023-02-26T20:03:32.308Z,100994.94
2023-02-26T20:05:59.573Z,101000.94
2023-02-26T20:08:29.378Z,101007.06
2023-02-26T20:10:57.393Z,101007.88
2023-02-26T20:13:30.004Z,101013.19
2023-02-26T20:16:00.461Z,101014.03
2023-02-26T20:18:29.717Z,101018.50
2023-02-26T20:21:01.290Z,101018.47
2023-02-26T20:23:34.621Z,101024.47
2023-02-26T20:26:02.113Z,101024.63
2023-02-26T20:28:28.957Z,101028.00
2023-02-26T20:30:55.729Z,101034.97
2023-02-26T20:33:22.838Z,101030.66
2023-02-26T20:35:49.770Z,101030.59
2023-02-26T20:38:19.065Z,101029.91
2023-02-26T20:40:47.187Z,101040.28
2023-02-26T20:43:14.568Z,101034.19
2023-02-26T20:45:41.882Z,101039.47
2023-02-26T20:48:10.050Z,101041.13
2023-02-26T20:50:37.186Z,101047.19
2023-02-26T20:53:05.363Z,101046.38
2023-02-26T20:55:34.543Z,101056.75
2023-02-26T20:58:02.034Z,101052.47
2023-02-26T21:00:29.192Z,101059.41
2023-02-26T21:03:01.662Z,101052.47
2023-02-26T21:05:28.460Z,101057.59
2023-02-26T21:07:55.303Z,101058.63
2023-02-26T21:10:22.087Z,101064.69
2023-02-26T21:12:49.032Z,101066.47
2023-02-26T21:15:15.830Z,101064.66
2023-02-26T21:17:43.631Z,101064.63
2023-02-26T21:20:13.402Z,101067.25
2023-02-26T21:22:40.112Z,101070.72
2023-02-26T21:25:07.721Z,101075.03
2023-02-26T21:27:38.131Z,101078.53
2023-02-26T21:30:06.922Z,101081.97
2023-02-26T21:32:33.734Z,101093.25
2023-02-26T21:35:00.480Z,101090.59
2023-02-26T21:37:27.781Z,101088.84
2023-02-26T21:39:54.490Z,101094.06
2023-02-26T21:42:22.550Z,101092.34
2023-02-26T21:44:49.661Z,101086.31
2023-02-26T21:47:16.558Z,101095.00
2023-02-26T21:49:43.375Z,101091.50
2023-02-26T21:52:12.269Z,101088.88
2023-02-26T21:54:39.399Z,101083.69
2023-02-26T21:57:06.153Z,101092.41
2023-02-26T21:59:33.541Z,101085.47
2023-02-26T22:02:00.527Z,101088.06
2023-02-26T22:04:27.648Z,101095.00
2023-02-26T22:06:56.804Z,101098.47
2023-02-26T22:09:23.583Z,101097.59
2023-02-26T22:11:50.525Z,101104.53
2023-02-26T22:14:17.427Z,101112.31
2023-02-26T22:16:44.176Z,101101.06
2023-02-26T22:19:11.057Z,101102.78
2023-02-26T22:21:37.777Z,101095.00
2023-02-26T22:24:05.317Z,101102.78
2023-02-26T22:26:35.239Z,101107.13
2023-02-26T22:29:01.788Z,101101.94
2023-02-26T22:31:29.264Z,101107.09
2023-02-26T22:33:57.415Z,101114.03
2023-02-26T22:36:24.985Z,101119.22
2023-02-26T22:38:51.712Z,101126.13
2023-02-26T22:41:18.432Z,101120.94
2023-02-26T22:43:45.024Z,101127.84
2023-02-26T22:46:11.831Z,101121.78
2023-02-26T22:48:41.187Z,101128.69
2023-02-26T22:51:07.985Z,101123.53
2023-02-26T22:53:35.742Z,101127.88
2023-02-26T22:56:02.451Z,101123.53
2023-02-26T22:58:29.286Z,101123.56
2023-02-26T23:01:05.364Z,101122.66
2023-02-26T23:03:36.139Z,101128.75
2023-02-26T23:06:02.984Z,101123.53
2023-02-26T23:08:29.671Z,101129.59
2023-02-26T23:10:58.061Z,101129.59
2023-02-26T23:13:25.496Z,101129.59
2023-02-26T23:15:52.273Z,101126.13
2023-02-26T23:18:19.161Z,101135.63
2023-02-26T23:20:47.489Z,101133.03
2023-02-26T23:23:14.407Z,101124.41
2023-02-26T23:25:42.409Z,101127.00
2023-02-26T23:28:09.797Z,101134.78
2023-02-26T23:30:36.870Z,101126.13
2023-02-26T23:33:10.241Z,101133.06
2023-02-26T23:35:36.900Z,101136.50
2023-02-26T23:38:07.094Z,101143.41
2023-02-26T23:40:34.173Z,101139.09
2023-02-26T23:43:00.914Z,101148.56
2023-02-26T23:45:27.634Z,101151.19
2023-02-26T23:47:54.318Z,101155.53
2023-02-26T23:50:21.100Z,101152.94
2023-02-26T23:52:47.823Z,101151.19
2023-02-26T23:55:14.573Z,101155.53
2023-02-26T23:57:41.152Z,101154.63
